createdAt,value
2023-05-07T00:02:37.545Z,65.50
2023-05-07T00:05:40.088Z,65.50
2023-05-07T00:08:41.489Z,65.20
2023-05-07T00:11:43.077Z,65.40
2023-05-07T00:14:46.016Z,65.60
2023-05-07T00:17:50.297Z,65.40
2023-05-07T00:20:53.440Z,65.50
2023-05-07T00:23:54.979Z,65.50
2023-05-07T00:26:58.199Z,65.60
2023-05-07T00:30:00.210Z,65.10
2023-05-07T00:33:01.802Z,65.40
2023-05-07T00:36:03.645Z,65.50
2023-05-07T00:39:05.110Z,65.50
2023-05-07T00:42:06.887Z,65.50
2023-05-07T00:45:11.068Z,65.60
2023-05-07T00:48:13.095Z,65.40
2023-05-07T00:51:14.723Z,65.40
2023-05-07T00:54:16.220Z,65.90
2023-05-07T00:57:17.853Z,65.60
2023-05-07T01:00:20.443Z,65.60
2023-05-07T01:03:21.927Z,65.40
2023-05-07T01:06:25.932Z,65.50
2023-05-07T01:09:29.984Z,65.10
2023-05-07T01:12:32.193Z,65.20
2023-05-07T01:15:34.886Z,65.30
2023-05-07T01:18:37.407Z,65.30
2023-05-07T01:21:42.116Z,65.50
2023-05-07T01:24:44.556Z,63.60
2023-05-07T01:27:47.321Z,65.50
2023-05-07T01:30:57.026Z,65.50
2023-05-07T01:34:00.654Z,65.40
2023-05-07T01:37:03.069Z,65.20
2023-05-07T01:40:07.392Z,65.30
2023-05-07T01:43:09.800Z,65.00
2023-05-07T01:46:14.132Z,65.20
2023-05-07T01:49:16.764Z,64.50
2023-05-07T01:52:18.401Z,65.00
2023-05-07T01:55:20.399Z,65.40
2023-05-07T01:58:24.312Z,65.20
2023-05-07T02:01:26.060Z,65.20
2023-05-07T02:04:27.611Z,65.20
2023-05-07T02:07:29.214Z,65.20
2023-05-07T02:10:31.605Z,65.00
2023-05-07T02:13:34.904Z,65.00
2023-05-07T02:16:36.608Z,65.10
2023-05-07T02:19:38.206Z,64.90
2023-05-07T02:22:39.484Z,65.10
2023-05-07T02:25:42.135Z,65.30
2023-05-07T02:28:43.663Z,65.00
2023-05-07T02:31:45.626Z,65.20
2023-05-07T02:34:48.558Z,65.10
2023-05-07T02:37:49.978Z,65.10
2023-05-07T02:40:52.233Z,65.00
2023-05-07T02:43:53.721Z,64.90
2023-05-07T02:46:55.293Z,65.10
2023-05-07T02:49:57.565Z,65.10
2023-05-07T02:52:59.098Z,64.90
2023-05-07T02:56:01.805Z,65.20
2023-05-07T02:59:06.128Z,64.90
2023-05-07T03:02:12.460Z,62.30
2023-05-07T03:05:14.586Z,65.30
2023-05-07T03:08:16.182Z,65.20
2023-05-07T03:11:18.300Z,65.60
2023-05-07T03:14:20.658Z,93.70
2023-05-07T03:17:22.686Z,67.10
2023-05-07T03:20:26.910Z,66.50
2023-05-07T03:23:29.403Z,65.70
2023-05-07T03:26:33.461Z,66.50
2023-05-07T03:29:35.558Z,65.60
2023-05-07T03:32:36.992Z,65.50
2023-05-07T03:35:42.431Z,66.00
2023-05-07T03:38:45.077Z,65.80
2023-05-07T03:41:47.937Z,65.50
2023-05-07T03:44:49.488Z,65.10
2023-05-07T03:47:51.410Z,65.40
2023-05-07T03:50:56.575Z,65.20
2023-05-07T03:53:58.438Z,65.30
2023-05-07T03:57:02.503Z,65.40
2023-05-07T04:00:05.803Z,65.40
2023-05-07T04:03:11.196Z,65.40
2023-05-07T04:06:12.777Z,65.40
2023-05-07T04:09:18.210Z,65.60
2023-05-07T04:12:25.116Z,65.40
2023-05-07T04:15:26.910Z,62.60
2023-05-07T04:18:28.729Z,65.40
2023-05-07T04:21:30.326Z,65.40
2023-05-07T04:24:33.437Z,65.20
2023-05-07T04:27:37.895Z,65.30
2023-05-07T04:30:41.431Z,65.30
2023-05-07T04:33:43.414Z,65.40
2023-05-07T04:36:48.640Z,65.50
2023-05-07T04:39:49.998Z,65.50
2023-05-07T04:42:53.285Z,65.70
2023-05-07T04:45:55.783Z,65.40
2023-05-07T04:49:00.345Z,65.60
2023-05-07T04:52:02.221Z,65.70
2023-05-07T04:55:04.034Z,65.70
2023-05-07T04:58:11.219Z,65.70
2023-05-07T05:01:13.803Z,65.60
2023-05-07T05:04:18.497Z,66.00
2023-05-07T05:07:19.945Z,65.90
2023-05-07T05:10:23.263Z,66.30
2023-05-07T05:13:27.758Z,66.00
2023-05-07T05:16:30.280Z,65.90
2023-05-07T05:19:32.020Z,66.00
2023-05-07T05:22:36.498Z,66.20
2023-05-07T05:25:39.507Z,66.10
2023-05-07T05:28:41.723Z,66.20
2023-05-07T05:31:43.580Z,66.10
2023-05-07T05:34:45.765Z,66.30
2023-05-07T05:37:50.502Z,66.30
2023-05-07T05:40:55.376Z,66.40
2023-05-07T05:43:58.836Z,66.50
2023-05-07T05:47:01.320Z,66.40
2023-05-07T05:50:06.649Z,66.30
2023-05-07T05:53:08.071Z,66.00
2023-05-07T05:56:09.916Z,66.50
2023-05-07T05:59:14.013Z,66.50
2023-05-07T06:02:15.781Z,66.40
2023-05-07T06:05:17.846Z,66.50
2023-05-07T06:08:20.270Z,66.50
2023-05-07T06:11:21.814Z,66.20
2023-05-07T06:14:23.963Z,66.50
2023-05-07T06:17:25.740Z,66.30
2023-05-07T06:20:27.631Z,66.30
2023-05-07T06:23:29.280Z,66.50
2023-05-07T06:26:34.961Z,66.50
2023-05-07T06:29:36.898Z,66.50
2023-05-07T06:32:47.506Z,66.50
2023-05-07T06:35:53.312Z,66.40
2023-05-07T06:38:55.683Z,66.60
2023-05-07T06:41:57.442Z,66.70
2023-05-07T06:45:04.176Z,66.70
2023-05-07T06:48:06.493Z,66.60
2023-05-07T06:51:16.772Z,66.80
2023-05-07T06:54:19.073Z,67.00
2023-05-07T06:57:21.889Z,66.90
2023-05-07T07:00:24.144Z,67.00
2023-05-07T07:03:29.011Z,66.70
2023-05-07T07:06:31.957Z,67.00
2023-05-07T07:09:35.150Z,66.80
2023-05-07T07:12:38.436Z,66.90
2023-05-07T07:15:41.930Z,66.90
2023-05-07T07:18:43.750Z,66.90
2023-05-07T07:21:45.478Z,67.10
2023-05-07T07:24:48.300Z,66.80
2023-05-07T07:27:52.438Z,67.00
2023-05-07T07:30:55.982Z,66.90
2023-05-07T07:33:57.816Z,67.00
2023-05-07T07:37:05.376Z,67.10
2023-05-07T07:40:09.063Z,67.30
2023-05-07T07:43:12.215Z,66.90
2023-05-07T07:46:14.251Z,67.30
2023-05-07T07:49:17.550Z,67.70
2023-05-07T07:52:21.633Z,67.30
2023-05-07T07:55:23.855Z,81.90
2023-05-07T07:58:30.000Z,67.60
2023-05-07T08:01:32.131Z,67.80
2023-05-07T08:04:35.681Z,67.20
2023-05-07T08:07:39.967Z,67.80
2023-05-07T08:10:41.685Z,67.80
2023-05-07T08:13:51.015Z,67.80
2023-05-07T08:16:53.700Z,67.30
2023-05-07T08:19:56.236Z,68.10
2023-05-07T08:22:58.008Z,66.00
2023-05-07T08:26:01.773Z,67.90
2023-05-07T08:29:05.757Z,67.50
2023-05-07T08:32:10.683Z,68.00
2023-05-07T08:35:12.076Z,68.00
2023-05-07T08:38:14.106Z,67.90
2023-05-07T08:41:16.379Z,67.40
2023-05-07T08:44:26.800Z,67.70
2023-05-07T08:47:34.571Z,67.60
2023-05-07T08:50:39.087Z,67.50
2023-05-07T08:53:42.617Z,67.40
2023-05-07T08:56:47.302Z,67.40
2023-05-07T08:59:50.309Z,67.50
2023-05-07T09:02:53.840Z,67.40
2023-05-07T09:05:55.567Z,67.00
2023-05-07T09:09:01.784Z,67.30
2023-05-07T09:12:05.685Z,66.90
2023-05-07T09:15:10.857Z,67.00
2023-05-07T09:18:16.503Z,67.00
2023-05-07T09:21:21.245Z,66.70
2023-05-07T09:24:25.038Z,66.60
2023-05-07T09:27:26.661Z,67.00
2023-05-07T09:30:30.430Z,66.50
2023-05-07T09:33:35.204Z,67.00
2023-05-07T09:36:40.169Z,66.50
2023-05-07T09:39:46.955Z,66.40
2023-05-07T09:42:51.052Z,66.10
2023-05-07T09:45:53.529Z,66.40
2023-05-07T09:49:01.027Z,66.30
2023-05-07T09:52:06.217Z,66.00
2023-05-07T09:55:13.332Z,66.00
2023-05-07T09:58:16.703Z,65.70
2023-05-07T10:01:22.300Z,65.80
2023-05-07T10:04:25.733Z,65.50
2023-05-07T10:07:27.920Z,65.80
2023-05-07T10:10:34.157Z,65.80
2023-05-07T10:13:38.085Z,65.70
2023-05-07T10:16:42.339Z,65.70
2023-05-07T10:19:50.736Z,65.30
2023-05-07T10:22:56.464Z,65.20
2023-05-07T10:26:07.105Z,65.10
2023-05-07T10:29:18.371Z,65.00
2023-05-07T10:32:35.949Z,65.10
2023-05-07T10:35:42.000Z,64.70
2023-05-07T10:38:44.242Z,64.90
2023-05-07T10:41:48.309Z,65.20
2023-05-07T10:44:49.959Z,64.70
2023-05-07T10:48:28.929Z,65.20
2023-05-07T10:51:39.132Z,64.50
2023-05-07T10:55:21.531Z,64.40
2023-05-07T10:58:37.223Z,65.10
2023-05-07T11:01:53.199Z,64.70
2023-05-07T11:05:22.367Z,64.20
2023-05-07T11:08:54.387Z,64.10
2023-05-07T11:11:58.949Z,64.10
2023-05-07T11:15:09.450Z,64.30
2023-05-07T11:18:16.705Z,64.10
2023-05-07T11:21:34.962Z,64.00
2023-05-07T11:24:47.043Z,63.70
2023-05-07T11:27:49.586Z,64.00
2023-05-07T11:30:52.307Z,64.10
2023-05-07T11:33:56.036Z,64.00
2023-05-07T11:36:59.361Z,64.00
2023-05-07T11:40:14.339Z,63.90
2023-05-07T11:43:15.803Z,63.20
2023-05-07T11:46:17.929Z,63.80
2023-05-07T11:49:19.551Z,63.40
2023-05-07T11:52:24.919Z,63.60
2023-05-07T11:55:26.868Z,63.20
2023-05-07T11:58:29.017Z,63.20
2023-05-07T12:01:30.448Z,63.30
2023-05-07T12:04:31.874Z,63.50
2023-05-07T12:07:36.412Z,63.10
2023-05-07T12:10:42.189Z,63.20
2023-05-07T12:13:44.020Z,62.80
2023-05-07T12:16:46.191Z,62.60
2023-05-07T12:19:48.697Z,62.20
2023-05-07T12:22:52.179Z,62.10
2023-05-07T12:25:54.228Z,61.80
2023-05-07T12:29:01.416Z,61.90
2023-05-07T12:32:04.671Z,60.10
2023-05-07T12:35:11.315Z,62.00
2023-05-07T12:38:14.337Z,61.50
2023-05-07T12:41:16.687Z,61.60
2023-05-07T12:44:18.183Z,61.50
2023-05-07T12:47:21.396Z,61.50
2023-05-07T12:50:23.751Z,61.40
2023-05-07T12:53:26.858Z,61.40
2023-05-07T12:56:31.491Z,61.20
2023-05-07T12:59:34.246Z,61.10
2023-05-07T13:02:40.332Z,60.90
2023-05-07T13:05:41.818Z,61.00
2023-05-07T13:08:43.677Z,60.90
2023-05-07T13:11:45.700Z,58.90
2023-05-07T13:14:47.300Z,61.00
2023-05-07T13:17:51.704Z,61.30
2023-05-07T13:20:53.422Z,61.20
2023-05-07T13:23:54.922Z,61.20
2023-05-07T13:26:56.995Z,61.30
2023-05-07T13:29:58.500Z,61.20
2023-05-07T13:33:00.312Z,60.90
2023-05-07T13:36:02.477Z,61.10
2023-05-07T13:39:03.918Z,60.80
2023-05-07T13:42:05.874Z,60.70
2023-05-07T13:45:10.175Z,61.20
2023-05-07T13:48:11.950Z,60.60
2023-05-07T13:51:13.842Z,60.60
2023-05-07T13:54:16.061Z,60.30
2023-05-07T13:57:18.124Z,60.20
2023-05-07T14:00:20.032Z,60.20
2023-05-07T14:03:21.697Z,60.10
2023-05-07T14:06:23.190Z,59.90
2023-05-07T14:09:25.425Z,59.50
2023-05-07T14:12:27.373Z,59.70
2023-05-07T14:15:28.912Z,59.60
2023-05-07T14:18:30.392Z,59.60
2023-05-07T14:21:31.796Z,59.20
2023-05-07T14:24:38.809Z,59.10
2023-05-07T14:27:41.174Z,59.20
2023-05-07T14:30:42.827Z,58.70
2023-05-07T14:33:44.239Z,59.00
2023-05-07T14:36:45.668Z,59.10
2023-05-07T14:39:49.789Z,59.10
2023-05-07T14:42:52.455Z,58.90
2023-05-07T14:45:54.084Z,58.60
2023-05-07T14:48:57.308Z,58.70
2023-05-07T14:52:00.159Z,58.50
2023-05-07T14:55:01.620Z,58.20
2023-05-07T14:58:03.940Z,58.00
2023-05-07T15:01:05.394Z,58.10
2023-05-07T15:04:07.506Z,58.30
2023-05-07T15:07:09.058Z,58.20
2023-05-07T15:10:10.359Z,58.10
2023-05-07T15:13:15.933Z,58.50
2023-05-07T15:16:18.598Z,58.20
2023-05-07T15:19:22.107Z,58.10
2023-05-07T15:22:23.603Z,57.90
2023-05-07T15:25:24.964Z,58.20
2023-05-07T15:28:28.249Z,57.90
2023-05-07T15:31:34.923Z,58.00
2023-05-07T15:34:36.755Z,57.80
2023-05-07T15:37:38.212Z,58.10
2023-05-07T15:40:41.877Z,58.30
2023-05-07T15:43:49.898Z,57.40
2023-05-07T15:46:51.284Z,57.20
2023-05-07T15:49:52.700Z,58.10
2023-05-07T15:52:54.383Z,57.30
2023-05-07T15:55:55.873Z,57.10
2023-05-07T15:58:58.174Z,57.00
2023-05-07T16:02:00.467Z,56.90
2023-05-07T16:05:02.701Z,56.60
2023-05-07T16:08:04.459Z,56.40
2023-05-07T16:11:05.969Z,56.40
2023-05-07T16:14:08.002Z,56.30
2023-05-07T16:17:09.447Z,56.10
2023-05-07T16:20:14.646Z,56.50
2023-05-07T16:23:16.093Z,56.10
2023-05-07T16:26:17.540Z,56.40
2023-05-07T16:29:22.330Z,56.20
2023-05-07T16:32:23.745Z,55.80
2023-05-07T16:35:25.617Z,56.00
2023-05-07T16:38:27.787Z,55.80
2023-05-07T16:41:31.620Z,56.00
2023-05-07T16:44:34.669Z,55.70
2023-05-07T16:47:36.094Z,55.90
2023-05-07T16:50:40.713Z,55.90
2023-05-07T16:53:42.145Z,55.70
2023-05-07T16:56:43.590Z,55.70
2023-05-07T16:59:47.549Z,55.70
2023-05-07T17:02:49.010Z,53.60
2023-05-07T17:05:52.093Z,55.90
2023-05-07T17:08:53.571Z,55.70
2023-05-07T17:11:55.287Z,55.40
2023-05-07T17:14:57.270Z,55.70
2023-05-07T17:17:58.741Z,55.70
2023-05-07T17:21:00.368Z,55.40
2023-05-07T17:24:01.833Z,55.80
2023-05-07T17:27:03.285Z,55.70
2023-05-07T17:30:06.849Z,55.90
2023-05-07T17:33:20.156Z,55.60
2023-05-07T17:36:23.417Z,55.50
2023-05-07T17:39:24.962Z,55.60
2023-05-07T17:42:26.407Z,55.90
2023-05-07T17:45:31.578Z,55.70
2023-05-07T17:48:34.996Z,55.60
2023-05-07T17:51:52.553Z,55.70
2023-05-07T17:54:55.166Z,55.70
2023-05-07T17:57:56.834Z,55.60
2023-05-07T18:00:58.930Z,55.30
2023-05-07T18:04:00.448Z,55.30
2023-05-07T18:07:02.477Z,55.50
2023-05-07T18:10:04.825Z,55.50
2023-05-07T18:13:06.374Z,54.70
2023-05-07T18:16:09.263Z,55.10
2023-05-07T18:19:11.344Z,55.30
2023-05-07T18:22:12.738Z,55.30
2023-05-07T18:25:14.313Z,55.20
2023-05-07T18:28:15.678Z,55.30
2023-05-07T18:31:20.765Z,55.20
2023-05-07T18:34:22.318Z,54.80
2023-05-07T18:37:26.129Z,55.00
2023-05-07T18:40:31.228Z,55.00
2023-05-07T18:43:33.184Z,54.90
2023-05-07T18:46:42.881Z,55.20
2023-05-07T18:49:45.177Z,52.70
2023-05-07T18:52:48.247Z,55.10
2023-05-07T18:55:50.218Z,55.20
2023-05-07T18:58:51.645Z,55.10
2023-05-07T19:01:56.344Z,54.70
2023-05-07T19:04:57.792Z,55.40
2023-05-07T19:07:59.437Z,55.10
2023-05-07T19:11:01.692Z,55.30
2023-05-07T19:14:04.549Z,55.00
2023-05-07T19:17:07.023Z,55.20
2023-05-07T19:20:10.649Z,55.30
2023-05-07T19:23:12.369Z,55.10
2023-05-07T19:26:14.288Z,55.30
2023-05-07T19:29:18.505Z,55.50
2023-05-07T19:32:20.777Z,55.60
2023-05-07T19:35:24.624Z,55.20
2023-05-07T19:38:26.442Z,55.50
2023-05-07T19:41:28.480Z,55.40
2023-05-07T19:44:29.876Z,55.00
2023-05-07T19:47:31.857Z,55.20
2023-05-07T19:50:33.231Z,55.80
2023-05-07T19:53:34.494Z,55.40
2023-05-07T19:56:35.980Z,56.10
2023-05-07T19:59:37.360Z,55.70
2023-05-07T20:02:39.274Z,55.40
2023-05-07T20:05:40.749Z,55.70
2023-05-07T20:08:44.540Z,55.50
2023-05-07T20:11:45.935Z,55.70
2023-05-07T20:14:47.575Z,55.70
2023-05-07T20:17:49.655Z,55.50
2023-05-07T20:20:51.100Z,55.50
2023-05-07T20:23:53.447Z,55.40
2023-05-07T20:26:54.820Z,55.10
2023-05-07T20:29:56.078Z,56.10
2023-05-07T20:32:58.200Z,55.70
2023-05-07T20:36:01.397Z,55.50
2023-05-07T20:39:03.650Z,55.30
2023-05-07T20:42:05.803Z,55.30
2023-05-07T20:45:08.441Z,55.30
2023-05-07T20:48:10.422Z,55.10
2023-05-07T20:51:14.929Z,55.20
2023-05-07T20:54:16.880Z,55.20
2023-05-07T20:57:18.713Z,55.20
2023-05-07T21:00:20.246Z,55.30
2023-05-07T21:03:22.782Z,55.40
2023-05-07T21:06:24.224Z,55.40
2023-05-07T21:09:26.227Z,55.50
2023-05-07T21:12:27.656Z,55.40
2023-05-07T21:15:29.061Z,55.50
2023-05-07T21:18:33.906Z,55.80
2023-05-07T21:21:35.524Z,55.50
2023-05-07T21:24:36.927Z,55.40
2023-05-07T21:27:38.214Z,55.30
2023-05-07T21:30:39.567Z,55.90
2023-05-07T21:33:41.980Z,55.70
2023-05-07T21:36:43.423Z,56.40
2023-05-07T21:39:45.001Z,56.00
2023-05-07T21:42:46.298Z,56.00
2023-05-07T21:45:48.398Z,56.20
2023-05-07T21:48:51.415Z,56.20
2023-05-07T21:51:52.785Z,56.30
2023-05-07T21:54:54.204Z,56.20
2023-05-07T21:58:04.991Z,56.60
2023-05-07T22:01:11.545Z,56.30
2023-05-07T22:04:13.511Z,56.40
2023-05-07T22:07:14.949Z,57.00
2023-05-07T22:10:21.059Z,58.00
2023-05-07T22:13:22.531Z,55.60
2023-05-07T22:16:24.073Z,55.70
2023-05-07T22:19:26.128Z,55.60
2023-05-07T22:22:27.505Z,55.90
2023-05-07T22:25:31.133Z,55.60
2023-05-07T22:28:32.498Z,55.80
2023-05-07T22:31:34.360Z,55.70
2023-05-07T22:34:36.485Z,55.70
2023-05-07T22:37:37.911Z,55.70
2023-05-07T22:40:39.416Z,55.60
2023-05-07T22:43:40.882Z,55.60
2023-05-07T22:46:42.155Z,55.30
2023-05-07T22:49:45.363Z,55.50
2023-05-07T22:52:49.242Z,55.40
2023-05-07T22:55:50.791Z,55.40
2023-05-07T22:58:52.204Z,55.40
2023-05-07T23:01:53.485Z,55.50
2023-05-07T23:04:59.342Z,55.60
2023-05-07T23:08:00.763Z,55.10
2023-05-07T23:11:05.252Z,55.50
2023-05-07T23:14:07.570Z,55.40
2023-05-07T23:17:09.082Z,55.60
2023-05-07T23:20:14.490Z,55.30
2023-05-07T23:23:16.063Z,55.40
2023-05-07T23:26:17.310Z,55.60
2023-05-07T23:29:19.812Z,55.70
2023-05-07T23:32:23.681Z,55.60
2023-05-07T23:35:25.880Z,55.60
2023-05-07T23:38:27.499Z,55.60
2023-05-07T23:41:29.090Z,55.90
2023-05-07T23:44:33.341Z,55.80
2023-05-07T23:47:34.878Z,55.50
2023-05-07T23:50:37.463Z,55.60
2023-05-07T23:53:38.881Z,55.90
2023-05-07T23:56:40.621Z,55.70
2023-05-07T23:59:41.943Z,56.20
